Time;durP1;ratioP1;P1;durP2;ratioP2;P2;SDS_P1;SDS_P2;PMS_P1;PMS_P2;Temp;Humidity;BMP_temperature;BMP_pressure;BME280_temperature;BME280_humidity;BME280_pressure;Samples;Min_cycle;Max_cycle;Signal;HPM_P1;HPM_P2
2022/10/27 00:00:32;;;;;;;10.35;7.15;;;;;;;11.41;100.00;100924.34;6353974;27;20053;-78
2022/10/27 00:03:33;;;;;;;11.98;8.05;;;;;;;11.37;100.00;100925.41;6353790;27;20123;-78
2022/10/27 00:06:34;;;;;;;12.70;7.70;;;;;;;11.36;100.00;100928.94;6372203;27;20039;-78
2022/10/27 00:09:37;;;;;;;13.82;7.78;;;;;;;11.40;100.00;100927.84;6353819;27;20039;-78
2022/10/27 00:12:37;;;;;;;12.48;7.95;;;;;;;11.38;100.00;100931.47;6372031;27;20039;-77
2022/10/27 00:15:43;;;;;;;15.85;7.78;;;;;;;11.36;100.00;100922.88;6371962;27;20467;-78
2022/10/27 00:18:44;;;;;;;14.90;8.65;;;;;;;11.32;100.00;100929.16;6371832;27;20036;-78
2022/10/27 00:21:45;;;;;;;13.15;8.02;;;;;;;11.21;100.00;100920.09;6371812;27;20122;-78
2022/10/27 00:24:45;;;;;;;10.38;6.60;;;;;;;11.16;100.00;100923.84;6353400;27;20039;-77
2022/10/27 00:27:46;;;;;;;12.80;7.93;;;;;;;11.16;100.00;100929.09;6353299;28;20134;-77
2022/10/27 00:30:47;;;;;;;13.75;7.40;;;;;;;11.10;100.00;100932.88;6353156;28;20139;-78
2022/10/27 00:33:49;;;;;;;10.90;6.90;;;;;;;11.15;100.00;100932.63;6353324;28;20039;-78
2022/10/27 00:36:50;;;;;;;;;;;;;;;11.19;100.00;100936.78;6372018;28;20487;-77
2022/10/27 00:39:50;;;;;;;9.82;6.32;;;;;;;11.16;100.00;100935.19;6371595;28;19927;-77
2022/10/27 00:42:51;;;;;;;11.65;7.72;;;;;;;11.11;100.00;100921.47;6363688;28;20520;-78
2022/10/27 00:45:55;;;;;;;16.75;8.18;;;;;;;11.16;100.00;100936.91;6327867;28;20503;-77
2022/10/27 00:49:09;;;;;;;11.60;7.28;;;;;;;11.20;100.00;100935.84;6328051;28;20122;-77
2022/10/27 00:52:27;;;;;;;10.23;6.93;;;;;;;11.28;100.00;100933.69;6327812;28;20067;-77
2022/10/27 00:55:33;;;;;;;12.63;6.78;;;;;;;11.35;100.00;100942.09;6327871;28;20486;-77
2022/10/27 00:58:34;;;;;;;15.10;8.15;;;;;;;11.37;100.00;100935.88;6327876;28;20044;-77
2022/10/27 01:01:37;;;;;;;16.02;7.20;;;;;;;11.33;100.00;100936.09;6328330;28;20036;-77
2022/10/27 01:04:53;;;;;;;12.32;7.07;;;;;;;11.29;100.00;100941.47;6328750;28;20101;-78
2022/10/27 01:07:58;;;;;;;11.30;6.63;;;;;;;11.27;100.00;100939.84;6347372;28;20044;-77
2022/10/27 01:10:59;;;;;;;12.68;6.97;;;;;;;11.22;100.00;100936.63;6333881;28;20531;-77
2022/10/27 01:14:00;;;;;;;12.50;6.88;;;;;;;11.17;100.00;100942.06;6351632;28;20044;-77
2022/10/27 01:17:27;;;;;;;12.50;7.95;;;;;;;11.23;100.00;100941.78;6316516;28;20047;-77
2022/10/27 01:20:36;;;;;;;10.05;6.90;;;;;;;11.34;100.00;100932.56;6340407;28;20067;-77
2022/10/27 01:23:55;;;;;;;10.43;7.20;;;;;;;11.39;100.00;100941.03;6333463;28;20464;-77
2022/10/27 01:27:04;;;;;;;11.32;7.00;;;;;;;11.26;100.00;100927.69;6333224;28;20051;-77
2022/10/27 01:30:15;;;;;;;11.55;6.53;;;;;;;11.22;100.00;100944.44;6333255;28;20064;-78
2022/10/27 01:33:24;;;;;;;10.55;6.88;;;;;;;11.21;100.00;100935.78;6351344;28;20066;-78
2022/10/27 01:36:33;;;;;;;11.85;7.30;;;;;;;11.25;100.00;100941.69;6333107;28;20081;-77
2022/10/27 01:39:41;;;;;;;12.38;7.93;;;;;;;11.25;100.00;100942.53;6351115;28;20040;-78
2022/10/27 01:42:49;;;;;;;12.32;7.65;;;;;;;11.23;100.00;100944.38;6332777;28;20050;-78
2022/10/27 01:45:51;;;;;;;13.30;7.35;;;;;;;11.24;100.00;100935.66;6315470;28;20048;-78
2022/10/27 01:48:52;;;;;;;11.98;7.80;;;;;;;11.23;100.00;100940.94;6351219;27;20192;-77
2022/10/27 01:52:03;;;;;;;12.93;7.73;;;;;;;11.18;100.00;100942.91;6332504;28;20058;-78
2022/10/27 01:55:09;;;;;;;11.18;6.60;;;;;;;11.17;100.00;100941.25;6332201;28;20390;-77
2022/10/27 01:58:22;;;;;;;13.18;8.05;;;;;;;11.25;100.00;100950.38;6330821;28;20047;-78
2022/10/27 02:01:57;;;;;;;14.85;8.60;;;;;;;11.24;100.00;100945.22;6349997;28;20128;-77
2022/10/27 02:05:30;;;;;;;13.23;7.63;;;;;;;11.17;100.00;100941.25;6350554;28;20126;-78
2022/10/27 02:08:40;;;;;;;13.70;7.60;;;;;;;11.05;100.00;100940.91;6281470;28;20056;-77
2022/10/27 02:11:45;;;;;;;10.05;7.05;;;;;;;10.99;100.00;100945.59;6353788;27;20049;-77
2022/10/27 02:14:50;;;;;;;10.93;7.25;;;;;;;10.91;100.00;100942.50;6376054;27;20050;-78
2022/10/27 02:17:56;;;;;;;11.88;7.07;;;;;;;10.87;100.00;100941.78;6375820;27;20050;-77
2022/10/27 02:21:04;;;;;;;10.80;7.05;;;;;;;10.84;100.00;100953.25;6357492;27;20039;-78
2022/10/27 02:24:05;;;;;;;11.38;6.93;;;;;;;10.68;100.00;100950.50;6357330;27;20077;-78
2022/10/27 02:27:16;;;;;;;10.47;7.17;;;;;;;10.61;100.00;100961.31;6357247;27;20395;-78
2022/10/27 02:30:17;;;;;;;13.55;7.32;;;;;;;10.58;100.00;100961.44;6351207;27;20388;-78
2022/10/27 02:33:18;;;;;;;10.93;7.10;;;;;;;10.53;100.00;100971.28;6331784;28;20035;-78
2022/10/27 02:36:19;;;;;;;10.77;6.57;;;;;;;10.44;100.00;100975.16;6349519;28;20044;-78
2022/10/27 02:39:20;;;;;;;11.77;7.50;;;;;;;10.41;100.00;100973.50;6331495;28;20126;-77
2022/10/27 02:42:20;;;;;;;13.45;7.00;;;;;;;10.35;100.00;100973.78;6346088;27;20049;-77
2022/10/27 02:45:21;;;;;;;14.10;7.63;;;;;;;10.36;100.00;100979.88;6382080;27;20066;-77
2022/10/27 02:48:24;;;;;;;11.23;5.95;;;;;;;10.23;100.00;100975.19;6382279;27;20047;-77
2022/10/27 02:51:25;;;;;;;11.88;6.65;;;;;;;10.17;100.00;100978.06;6382038;27;20042;-78
2022/10/27 02:54:26;;;;;;;10.02;6.22;;;;;;;10.17;100.00;100980.66;6400222;27;20039;-77
2022/10/27 02:57:26;;;;;;;8.55;5.53;;;;;;;10.11;100.00;100985.28;6400386;27;20074;-77
2022/10/27 03:00:27;;;;;;;12.13;6.95;;;;;;;9.98;100.00;100978.00;6381880;27;20046;-77
2022/10/27 03:03:28;;;;;;;10.15;6.53;;;;;;;9.86;100.00;100975.94;6381732;27;20046;-77
2022/10/27 03:06:29;;;;;;;10.82;6.15;;;;;;;9.86;100.00;100995.03;6399954;27;20563;-77
2022/10/27 03:09:30;;;;;;;13.50;6.40;;;;;;;9.80;100.00;100986.63;6400052;27;20042;-77
2022/10/27 03:12:30;;;;;;;12.50;7.05;;;;;;;9.78;100.00;100991.91;6374204;27;20039;-78
2022/10/27 03:15:31;;;;;;;8.27;5.90;;;;;;;9.78;100.00;100996.25;6374186;27;20414;-77
2022/10/27 03:18:32;;;;;;;11.30;6.57;;;;;;;9.66;100.00;100993.28;6355999;27;20039;-78
2022/10/27 03:21:33;;;;;;;9.95;6.13;;;;;;;9.64;100.00;100995.09;6355910;27;20066;-78
2022/10/27 03:24:36;;;;;;;9.30;6.13;;;;;;;9.60;100.00;100985.72;6355802;27;20404;-78
2022/10/27 03:27:42;;;;;;;21.38;6.75;;;;;;;9.57;100.00;100998.84;6373702;27;20458;-77
2022/10/27 03:30:42;;;;;;;8.57;5.80;;;;;;;9.54;100.00;101003.38;6354147;27;20043;-78
2022/10/27 03:33:43;;;;;;;10.52;6.57;;;;;;;9.50;100.00;101007.84;6337925;27;20391;-77
2022/10/27 03:36:46;;;;;;;16.52;7.13;;;;;;;9.43;100.00;101003.78;6355440;27;20047;-77
2022/10/27 03:39:47;;;;;;;10.93;6.82;;;;;;;9.27;100.00;101003.59;6355565;27;20375;-78
2022/10/27 03:42:47;;;;;;;10.02;5.82;;;;;;;9.25;100.00;101014.06;6373723;27;20043;-77
2022/10/27 03:45:49;;;;;;;12.30;7.35;;;;;;;9.26;100.00;101018.34;6325873;28;20101;-77
2022/10/27 03:48:49;;;;;;;17.50;7.22;;;;;;;9.38;100.00;101016.16;6321691;28;20396;-77
2022/10/27 03:51:50;;;;;;;14.05;8.15;;;;;;;9.38;100.00;101011.81;6321690;28;20093;-77
2022/10/27 03:54:51;;;;;;;13.18;8.27;;;;;;;9.36;100.00;101021.44;6322833;28;20075;-77
2022/10/27 03:57:52;;;;;;;16.30;8.63;;;;;;;9.36;100.00;101026.66;6304556;28;20091;-77
2022/10/27 04:00:52;;;;;;;20.70;9.15;;;;;;;9.32;100.00;101026.84;6304691;28;20048;-77
2022/10/27 04:03:53;;;;;;;17.02;9.40;;;;;;;9.36;100.00;101029.25;6322515;28;20119;-77
2022/10/27 04:06:54;;;;;;;17.23;9.00;;;;;;;9.35;100.00;101031.91;6315345;28;20472;-77
2022/10/27 04:09:55;;;;;;;15.10;9.18;;;;;;;9.34;100.00;101028.47;6320112;28;20060;-77
2022/10/27 04:12:56;;;;;;;16.27;8.85;;;;;;;9.39;100.00;101034.34;6314605;28;20088;-78
2022/10/27 04:16:01;;;;;;;12.77;7.70;;;;;;;9.45;100.00;101028.91;6315072;28;20048;-77
2022/10/27 04:19:02;;;;;;;12.35;7.78;;;;;;;9.51;100.00;101032.97;6297887;28;20123;-77
2022/10/27 04:22:03;;;;;;;12.88;6.72;;;;;;;9.54;100.00;101038.09;6297048;28;20044;-77
2022/10/27 04:25:04;;;;;;;11.60;7.05;;;;;;;9.60;100.00;101035.22;6321068;28;20051;-78
2022/10/27 04:28:07;;;;;;;16.93;7.90;;;;;;;9.64;100.00;101031.59;6319800;28;20044;-77
2022/10/27 04:31:08;;;;;;;15.07;7.68;;;;;;;9.66;100.00;101040.19;6319883;28;20397;-78
2022/10/27 04:34:11;;;;;;;10.07;6.25;;;;;;;9.69;100.00;101063.50;6297156;28;20098;-78
2022/10/27 04:37:11;;;;;;;13.48;8.13;;;;;;;9.75;100.00;101051.97;6295929;28;20438;-78
2022/10/27 04:40:12;;;;;;;11.27;6.68;;;;;;;9.81;100.00;101037.84;6294345;28;20048;-78
2022/10/27 04:43:13;;;;;;;14.43;9.05;;;;;;;9.85;100.00;101044.63;6301073;28;20047;-78
2022/10/27 04:46:13;;;;;;;14.60;9.48;;;;;;;9.86;100.00;101046.31;6361282;27;20047;-78
2022/10/27 04:49:14;;;;;;;12.82;7.90;;;;;;;9.96;100.00;101050.22;6358257;27;20094;-78
2022/10/27 04:52:19;;;;;;;14.25;8.88;;;;;;;9.94;100.00;101040.78;6358373;27;20043;-78
2022/10/27 04:55:20;;;;;;;8.73;6.35;;;;;;;9.92;100.00;101040.84;6340932;27;20054;-78
2022/10/27 04:58:21;;;;;;;10.15;6.72;;;;;;;9.88;100.00;101041.88;6376967;27;20123;-78
2022/10/27 05:01:22;;;;;;;12.90;7.13;;;;;;;9.84;100.00;101040.31;6358033;27;20035;-78
2022/10/27 05:04:23;;;;;;;13.15;7.88;;;;;;;9.81;100.00;101038.69;6358053;27;20066;-78
2022/10/27 05:07:24;;;;;;;14.73;8.13;;;;;;;9.74;100.00;101041.59;6340660;27;20088;-78
2022/10/27 05:10:24;;;;;;;11.52;6.95;;;;;;;9.56;100.00;101036.25;6337771;28;20072;-78
2022/10/27 05:13:25;;;;;;;12.05;7.53;;;;;;;9.62;100.00;101051.66;6345325;27;20039;-78
2022/10/27 05:16:29;;;;;;;11.38;6.97;;;;;;;9.54;100.00;101047.66;6351693;27;20043;-78
2022/10/27 05:19:29;;;;;;;12.82;7.82;;;;;;;9.55;100.00;101050.19;6345568;27;20039;-78
2022/10/27 05:22:30;;;;;;;13.65;8.23;;;;;;;9.52;100.00;101052.94;6343064;27;20043;-78
2022/10/27 05:25:31;;;;;;;13.55;7.63;;;;;;;9.49;100.00;101055.66;6357512;27;20040;-77
2022/10/27 05:28:32;;;;;;;13.25;7.00;;;;;;;9.42;100.00;101062.88;6340647;27;20047;-77
2022/10/27 05:31:33;;;;;;;11.40;7.40;;;;;;;9.39;100.00;101063.00;6330657;27;20174;-78
2022/10/27 05:34:33;;;;;;;12.95;7.68;;;;;;;9.39;100.00;101064.75;6329574;27;20077;-77
2022/10/27 05:37:34;;;;;;;12.43;7.63;;;;;;;9.42;100.00;101064.63;6354999;27;20054;-78
2022/10/27 05:40:35;;;;;;;14.63;7.30;;;;;;;9.37;100.00;101074.38;6341106;28;20493;-78
2022/10/27 05:43:35;;;;;;;14.35;8.52;;;;;;;9.31;100.00;101075.47;6338581;27;20116;-78
2022/10/27 05:46:36;;;;;;;11.23;7.45;;;;;;;9.31;100.00;101080.69;6316714;27;20478;-78
2022/10/27 05:49:37;;;;;;;12.98;8.23;;;;;;;9.34;100.00;101082.31;6336951;27;20475;-78
2022/10/27 05:52:39;;;;;;;17.15;8.40;;;;;;;9.42;100.00;101090.69;6335732;27;20043;-77
2022/10/27 05:55:40;;;;;;;16.42;9.60;;;;;;;9.46;100.00;101084.44;6348952;28;20044;-77
2022/10/27 05:58:41;;;;;;;14.52;9.40;;;;;;;9.51;100.00;101098.13;6371296;27;20415;-78
2022/10/27 06:01:45;;;;;;;15.18;8.75;;;;;;;9.59;100.00;101103.88;6353455;27;20043;-78
2022/10/27 06:04:45;;;;;;;13.55;8.23;;;;;;;9.62;100.00;101100.31;6343409;27;20043;-77
2022/10/27 06:07:47;;;;;;;11.50;7.53;;;;;;;9.59;100.00;101097.81;6360278;27;20126;-79
2022/10/27 06:10:47;;;;;;;12.17;7.47;;;;;;;9.73;100.00;101121.56;6360190;27;20044;-78
2022/10/27 06:13:50;;;;;;;14.05;7.88;;;;;;;9.82;100.00;101128.16;6351912;27;20283;-78
2022/10/27 06:16:50;;;;;;;12.52;7.45;;;;;;;9.89;100.00;101130.44;6368376;27;20063;-77
2022/10/27 06:19:51;;;;;;;12.57;7.20;;;;;;;9.98;100.00;101144.03;6345614;27;20635;-77
2022/10/27 06:22:52;;;;;;;11.07;6.93;;;;;;;10.11;100.00;101145.22;6344934;27;20047;-77
2022/10/27 06:25:56;;;;;;;10.27;6.97;;;;;;;10.22;100.00;101150.81;6358371;27;20082;-77
2022/10/27 06:28:57;;;;;;;14.77;8.82;;;;;;;10.34;100.00;101149.50;6350180;27;20101;-77
2022/10/27 06:31:58;;;;;;;10.73;7.15;;;;;;;10.42;100.00;101150.03;6356430;27;20482;-77
2022/10/27 06:34:58;;;;;;;12.85;7.28;;;;;;;10.51;100.00;101154.00;6372466;27;20406;-77
2022/10/27 06:37:59;;;;;;;12.52;7.40;;;;;;;10.55;100.00;101149.50;6372565;27;20091;-77
2022/10/27 06:41:00;;;;;;;12.25;7.45;;;;;;;10.66;100.00;101155.91;6337635;27;20039;-77
2022/10/27 06:44:01;;;;;;;14.13;7.80;;;;;;;10.78;100.00;101164.97;6372608;27;20115;-78
2022/10/27 06:47:01;;;;;;;15.57;9.18;;;;;;;10.86;100.00;101165.50;6354223;27;20039;-78
2022/10/27 06:50:02;;;;;;;18.48;9.65;;;;;;;10.88;100.00;101152.38;6373502;27;20062;-78
2022/10/27 06:53:03;;;;;;;16.35;8.98;;;;;;;10.92;100.00;101151.31;6355489;27;20070;-78
2022/10/27 06:56:04;;;;;;;16.13;9.52;;;;;;;11.01;100.00;101160.50;6373523;27;20087;-78
2022/10/27 06:59:04;;;;;;;14.52;9.43;;;;;;;11.08;100.00;101156.72;6355257;27;20050;-78
2022/10/27 07:02:05;;;;;;;18.48;10.10;;;;;;;11.21;100.00;101155.22;6355445;27;20490;-78
2022/10/27 07:05:07;;;;;;;19.95;10.02;;;;;;;11.34;100.00;101160.72;6373091;27;20630;-78
2022/10/27 07:08:07;;;;;;;19.50;10.23;;;;;;;11.45;100.00;101166.31;6354356;27;20172;-78
2022/10/27 07:11:08;;;;;;;14.88;9.82;;;;;;;11.56;100.00;101178.03;6373277;27;20043;-78
2022/10/27 07:14:09;;;;;;;18.25;8.75;;;;;;;11.56;100.00;101178.03;6373197;27;20046;-78
2022/10/27 07:17:10;;;;;;;14.60;8.77;;;;;;;11.45;100.00;101181.97;6372981;27;20051;-78
2022/10/27 07:20:10;;;;;;;11.77;8.30;;;;;;;11.53;100.00;101178.16;6354736;27;20070;-78
2022/10/27 07:23:11;;;;;;;15.25;8.13;;;;;;;11.56;100.00;101189.31;6372908;27;20043;-78
2022/10/27 07:26:12;;;;;;;11.68;7.57;;;;;;;11.54;100.00;101185.09;6354464;27;20096;-77
2022/10/27 07:29:13;;;;;;;15.35;9.10;;;;;;;11.76;100.00;101187.53;6372738;27;20035;-78
2022/10/27 07:32:14;;;;;;;18.85;8.73;;;;;;;11.80;100.00;101182.06;6372627;27;20035;-78
2022/10/27 07:35:15;;;;;;;16.63;9.45;;;;;;;11.88;100.00;101179.97;6372595;27;20036;-78
2022/10/27 07:38:16;;;;;;;13.73;8.68;;;;;;;12.09;100.00;101193.75;6372466;27;20042;-78
2022/10/27 07:41:17;;;;;;;17.17;9.70;;;;;;;12.12;100.00;101198.00;6372446;27;20048;-78
2022/10/27 07:44:20;;;;;;;24.45;12.60;;;;;;;12.16;100.00;101186.44;6353892;27;20043;-78
2022/10/27 07:47:21;;;;;;;25.52;10.88;;;;;;;12.20;100.00;101192.38;6372255;27;20050;-78
2022/10/27 07:50:26;;;;;;;24.35;11.50;;;;;;;12.27;100.00;101196.38;6353808;27;20606;-78
2022/10/27 07:53:29;;;;;;;18.88;10.70;;;;;;;12.35;100.00;101189.00;6354018;27;20039;-78
2022/10/27 07:56:31;;;;;;;22.90;10.55;;;;;;;12.33;100.00;101182.97;6353897;27;20047;-78
2022/10/27 07:59:32;;;;;;;;;;;;;;;12.37;100.00;101196.78;6337421;27;20345;-78
2022/10/27 08:02:32;;;;;;;14.75;8.82;;;;;;;12.44;100.00;101191.16;6372159;27;20023;-78
2022/10/27 08:05:35;;;;;;;18.98;9.85;;;;;;;12.69;100.00;101197.75;6371853;27;20111;-78
2022/10/27 08:08:36;;;;;;;22.95;10.32;;;;;;;12.84;100.00;101199.56;6353677;27;20050;-78
2022/10/27 08:11:36;;;;;;;17.40;10.40;;;;;;;12.84;100.00;101201.34;6353514;27;20118;-78
2022/10/27 08:14:37;;;;;;;19.60;9.57;;;;;;;13.06;100.00;101206.31;6371860;27;20063;-78
2022/10/27 08:17:39;;;;;;;21.35;10.75;;;;;;;13.21;100.00;101209.88;6371441;27;20081;-78
2022/10/27 08:20:45;;;;;;;19.20;10.32;;;;;;;13.31;100.00;101208.50;6336381;27;20047;-78
2022/10/27 08:23:45;;;;;;;20.92;10.18;;;;;;;13.33;100.00;101211.88;6371655;27;20040;-78
2022/10/27 08:26:46;;;;;;;23.98;11.23;;;;;;;13.32;100.00;101220.66;6336221;27;20050;-78
2022/10/27 08:29:47;;;;;;;22.30;11.57;;;;;;;13.41;100.00;101220.16;6336140;27;20141;-78
2022/10/27 08:32:48;;;;;;;22.73;11.32;;;;;;;13.34;100.00;101228.44;6371569;28;20039;-78
2022/10/27 08:35:50;;;;;;;23.20;11.60;;;;;;;13.36;100.00;101230.03;6353345;28;20418;-78
2022/10/27 08:38:55;;;;;;;18.73;9.45;;;;;;;13.43;100.00;101231.41;6354038;28;20463;-78
2022/10/27 08:42:17;;;;;;;20.00;11.25;;;;;;;13.58;100.00;101228.88;6336104;28;20051;-78
2022/10/27 08:45:29;;;;;;;19.27;9.57;;;;;;;13.81;100.00;101240.72;6352971;28;20050;-78
2022/10/27 08:48:32;;;;;;;11.75;7.07;;;;;;;13.86;100.00;101236.09;6336084;28;20051;-78
2022/10/27 08:51:37;;;;;;;15.05;7.55;;;;;;;13.88;100.00;101242.94;6353000;28;20042;-78
2022/10/27 08:54:42;;;;;;;15.10;8.55;;;;;;;13.84;100.00;101236.16;6371353;28;20039;-78
2022/10/27 08:57:52;;;;;;;15.63;8.68;;;;;;;14.11;100.00;101236.38;6335726;28;20403;-78
2022/10/27 09:01:08;;;;;;;19.83;12.73;;;;;;;14.17;100.00;101223.84;6371323;28;20049;-78
2022/10/27 09:04:23;;;;;;;13.82;8.48;;;;;;;14.10;100.00;101231.22;6371292;28;20402;-78
2022/10/27 09:07:56;;;;;;;15.40;8.07;;;;;;;14.17;100.00;101237.81;6371012;28;20035;-78
2022/10/27 09:11:24;;;;;;;15.85;8.65;;;;;;;14.22;100.00;101237.53;6323362;28;20631;-78
2022/10/27 09:14:37;;;;;;;16.63;8.18;;;;;;;14.15;100.00;101236.22;6371039;28;20042;-78
2022/10/27 09:17:49;;;;;;;13.23;7.78;;;;;;;14.21;100.00;101244.59;6371607;28;20072;-78
2022/10/27 09:20:56;;;;;;;14.40;8.07;;;;;;;14.17;100.00;101248.31;6352760;28;20043;-78
2022/10/27 09:24:03;;;;;;;19.98;8.18;;;;;;;14.33;100.00;101248.28;6371036;28;20540;-78
2022/10/27 09:27:04;;;;;;;13.32;8.07;;;;;;;14.43;100.00;101243.31;6352637;28;20043;-78
2022/10/27 09:30:05;;;;;;;12.27;7.97;;;;;;;14.51;100.00;101244.56;6354972;27;20470;-78
2022/10/27 09:33:18;;;;;;;13.07;8.20;;;;;;;14.52;100.00;101254.16;6357129;27;20092;-79
2022/10/27 09:36:21;;;;;;;14.07;8.63;;;;;;;14.38;100.00;101246.22;6357270;27;20445;-78
2022/10/27 09:39:25;;;;;;;14.85;8.85;;;;;;;14.63;100.00;101242.19;6375356;27;20046;-78
2022/10/27 09:42:27;;;;;;;14.85;8.80;;;;;;;14.71;100.00;101246.06;6357097;27;20038;-78
2022/10/27 09:45:28;;;;;;;;;;;;;;;14.80;100.00;101249.06;6375406;27;20082;-78
2022/10/27 09:48:29;;;;;;;12.50;7.88;;;;;;;14.90;100.00;101243.16;6339769;27;19957;-78
2022/10/27 09:51:45;;;;;;;17.42;9.13;;;;;;;14.86;100.00;101254.78;6356895;27;20391;-78
2022/10/27 09:54:51;;;;;;;14.70;8.07;;;;;;;14.85;100.00;101253.13;6356847;27;20040;-79
2022/10/27 09:57:53;;;;;;;14.25;8.05;;;;;;;14.72;100.00;101254.78;6356510;27;20107;-78
2022/10/27 10:00:59;;;;;;;17.05;8.63;;;;;;;14.63;100.00;101258.78;6374916;27;20122;-78
2022/10/27 10:04:05;;;;;;;14.57;8.35;;;;;;;14.73;100.00;101259.09;6356666;27;20081;-78
2022/10/27 10:07:06;;;;;;;17.35;9.23;;;;;;;14.71;100.00;101251.31;6356503;27;20039;-78
2022/10/27 10:10:22;;;;;;;15.52;8.80;;;;;;;14.82;100.00;101262.97;6356415;27;20436;-78
2022/10/27 10:13:23;;;;;;;14.60;8.93;;;;;;;14.78;100.00;101253.56;6356259;27;20586;-78
2022/10/27 10:16:27;;;;;;;17.30;10.10;;;;;;;14.86;100.00;101262.69;6356262;27;20047;-78
2022/10/27 10:19:28;;;;;;;14.75;9.73;;;;;;;14.85;100.00;101258.38;6374513;27;20113;-79
2022/10/27 10:22:31;;;;;;;14.73;8.70;;;;;;;14.89;100.00;101262.50;6356192;27;20039;-78
2022/10/27 10:25:38;;;;;;;16.52;9.20;;;;;;;14.83;100.00;101262.88;6374318;27;20338;-79
2022/10/27 10:28:44;;;;;;;15.80;8.55;;;;;;;15.09;100.00;101255.19;6374243;27;20122;-78
2022/10/27 10:31:44;;;;;;;13.40;8.38;;;;;;;15.19;100.00;101255.47;6339099;27;20050;-78
2022/10/27 10:34:46;;;;;;;13.02;8.07;;;;;;;15.23;100.00;101255.19;6355928;27;20035;-78
2022/10/27 10:37:47;;;;;;;17.60;9.07;;;;;;;15.25;100.00;101261.19;6373925;27;20043;-78
2022/10/27 10:41:03;;;;;;;16.90;9.43;;;;;;;15.30;100.00;101253.88;6373987;27;20042;-78
2022/10/27 10:44:16;;;;;;;19.58;9.52;;;;;;;15.35;100.00;101250.97;6355460;27;20051;-78
2022/10/27 10:47:25;;;;;;;19.67;9.48;;;;;;;15.43;100.00;101237.34;6373777;27;20103;-78
2022/10/27 10:50:31;;;;;;;15.73;9.20;;;;;;;15.56;100.00;101240.88;6355445;27;20043;-78
2022/10/27 10:53:38;;;;;;;14.38;8.48;;;;;;;15.65;100.00;101242.13;6338310;27;20055;-78
2022/10/27 10:56:38;;;;;;;17.40;9.15;;;;;;;15.74;100.00;101232.81;6355109;27;20491;-78
2022/10/27 10:59:46;;;;;;;16.27;8.90;;;;;;;15.59;100.00;101237.25;6355502;27;20039;-78
2022/10/27 11:02:59;;;;;;;17.00;9.00;;;;;;;15.66;100.00;101243.78;6355305;27;20271;-78
2022/10/27 11:06:05;;;;;;;15.38;8.52;;;;;;;15.66;100.00;101238.53;6373351;27;20039;-78
2022/10/27 11:09:10;;;;;;;17.17;9.63;;;;;;;15.79;100.00;101234.19;6354963;27;20043;-79
2022/10/27 11:12:30;;;;;;;16.90;8.80;;;;;;;15.92;100.00;101234.25;6355066;27;20471;-78
2022/10/27 11:15:40;;;;;;;13.38;8.27;;;;;;;15.93;100.00;101241.19;6373195;27;20084;-78
2022/10/27 11:18:47;;;;;;;16.00;8.70;;;;;;;15.92;100.00;101250.06;6373023;27;20039;-79
2022/10/27 11:22:00;;;;;;;14.98;7.85;;;;;;;16.19;100.00;101238.66;6373294;27;20121;-78
2022/10/27 11:25:13;;;;;;;15.25;8.75;;;;;;;16.18;100.00;101235.16;6372943;27;20036;-78
2022/10/27 11:28:20;;;;;;;12.50;8.38;;;;;;;16.08;100.00;101242.84;6372836;27;20101;-78
2022/10/27 11:32:03;;;;;;;12.85;7.78;;;;;;;16.36;100.00;101233.13;6354461;27;20410;-79
2022/10/27 11:35:09;;;;;;;17.77;9.80;;;;;;;16.59;100.00;101236.84;6353851;27;20427;-78
2022/10/27 11:38:54;;;;;;;14.93;8.75;;;;;;;16.83;100.00;101239.63;6354267;27;20054;-78
2022/10/27 11:42:13;;;;;;;12.98;8.35;;;;;;;16.56;100.00;101230.97;6246993;27;20045;-78
2022/10/27 11:45:39;;;;;;;13.57;8.52;;;;;;;16.39;100.00;101229.44;6334036;28;20052;-78
2022/10/27 11:48:49;;;;;;;16.10;8.15;;;;;;;16.76;100.00;101227.81;6320358;28;20094;-79
2022/10/27 11:52:15;;;;;;;17.13;9.02;;;;;;;17.25;100.00;101234.94;6319928;28;20085;-79
2022/10/27 11:55:21;;;;;;;15.73;9.27;;;;;;;17.23;100.00;101236.84;6321763;28;20416;-79
2022/10/27 11:58:59;;;;;;;14.75;8.10;;;;;;;17.02;100.00;101227.81;6321355;28;20484;-79
2022/10/27 12:02:11;;;;;;;17.85;8.70;;;;;;;17.24;100.00;101230.66;6320138;28;20054;-78
2022/10/27 12:05:19;;;;;;;13.35;8.38;;;;;;;17.23;100.00;101230.75;6303125;28;20130;-79
2022/10/27 12:08:32;;;;;;;18.50;9.07;;;;;;;17.44;100.00;101231.00;6319861;28;20461;-79
2022/10/27 12:11:45;;;;;;;16.10;9.07;;;;;;;17.42;100.00;101231.16;6319729;28;20062;-79
2022/10/27 12:14:58;;;;;;;14.52;9.27;;;;;;;17.30;100.00;101219.66;6321121;28;20046;-79
2022/10/27 12:18:11;;;;;;;15.25;9.25;;;;;;;17.55;100.00;101217.06;6302980;28;20135;-79
2022/10/27 12:21:31;;;;;;;15.10;8.90;;;;;;;17.44;100.00;101216.06;6320932;28;20044;-79
2022/10/27 12:25:03;;;;;;;19.52;9.70;;;;;;;17.79;100.00;101217.06;6319889;28;20036;-79
2022/10/27 12:28:09;;;;;;;16.42;9.02;;;;;;;18.08;100.00;101217.63;6320810;28;20064;-79
2022/10/27 12:31:16;;;;;;;19.58;9.23;;;;;;;17.91;97.93;101224.13;6321220;28;20054;-79
2022/10/27 12:34:20;;;;;;;13.57;8.95;;;;;;;17.73;100.00;101221.88;6320920;28;20071;-79
2022/10/27 12:37:28;;;;;;;15.25;9.23;;;;;;;17.78;100.00;101221.53;6319690;28;20044;-79
2022/10/27 12:40:50;;;;;;;14.43;8.35;;;;;;;17.26;100.00;101218.19;6319415;28;20185;-78
2022/10/27 12:44:09;;;;;;;15.57;9.13;;;;;;;17.09;100.00;101222.03;6319720;28;20040;-77
2022/10/27 12:47:16;;;;;;;21.15;9.70;;;;;;;17.08;100.00;101220.31;6353284;28;20042;-77
2022/10/27 12:50:23;;;;;;;15.48;9.70;;;;;;;17.57;100.00;101217.81;6353072;28;20494;-78
2022/10/27 12:54:01;;;;;;;15.40;9.85;;;;;;;17.51;100.00;101219.91;6353189;28;20138;-77
2022/10/27 12:57:20;;;;;;;17.20;10.30;;;;;;;17.45;100.00;101212.44;6353457;28;20043;-77
2022/10/27 13:00:23;;;;;;;18.80;10.32;;;;;;;17.38;100.00;101208.56;6335911;28;20054;-78
2022/10/27 13:03:39;;;;;;;16.80;9.60;;;;;;;17.14;100.00;101219.06;6335945;27;20414;-77
2022/10/27 13:06:42;;;;;;;18.95;10.75;;;;;;;17.12;100.00;101220.97;6357675;27;20043;-78
2022/10/27 13:09:55;;;;;;;17.10;9.73;;;;;;;17.21;100.00;101214.19;6376171;27;20049;-77
2022/10/27 13:13:11;;;;;;;16.88;10.00;;;;;;;17.06;100.00;101218.75;6357804;27;20043;-78
2022/10/27 13:16:36;;;;;;;19.05;10.65;;;;;;;16.89;100.00;101219.94;6376301;27;20067;-77
2022/10/27 13:19:45;;;;;;;17.77;9.68;;;;;;;16.91;100.00;101210.13;6357926;27;20039;-77
2022/10/27 13:22:54;;;;;;;17.35;10.45;;;;;;;16.68;100.00;101216.94;6375991;27;20042;-77
2022/10/27 13:26:10;;;;;;;18.80;10.10;;;;;;;16.71;100.00;101222.84;6357265;27;20398;-77
2022/10/27 13:29:25;;;;;;;19.50;10.38;;;;;;;16.56;100.00;101215.16;6350389;28;20122;-77
2022/10/27 13:32:27;;;;;;;20.80;9.50;;;;;;;16.60;100.00;101222.72;6331899;28;20044;-77
2022/10/27 13:35:35;;;;;;;16.67;9.82;;;;;;;16.53;100.00;101216.19;6350160;28;20118;-77
2022/10/27 13:38:36;;;;;;;17.00;9.77;;;;;;;16.39;100.00;101217.13;6349999;28;20380;-77
2022/10/27 13:41:49;;;;;;;16.38;10.10;;;;;;;16.43;100.00;101215.09;6314587;28;20059;-77
2022/10/27 13:44:49;;;;;;;16.80;10.27;;;;;;;16.20;100.00;101206.94;6331512;28;20097;-77
2022/10/27 13:48:09;;;;;;;17.00;10.70;;;;;;;15.99;100.00;101214.47;6349756;28;20448;-77
2022/10/27 13:51:40;;;;;;;22.15;14.35;;;;;;;15.96;100.00;101219.09;6331626;28;20462;-77
2022/10/27 13:55:19;;;;;;;25.30;17.42;;;;;;;15.86;100.00;101210.97;6314497;28;20134;-77
2022/10/27 13:58:25;;;;;;;15.23;9.93;;;;;;;15.64;100.00;101211.47;6250632;28;20049;-77
2022/10/27 14:01:32;;;;;;;16.63;9.93;;;;;;;15.36;100.00;101218.50;6331243;28;20058;-77
2022/10/27 14:04:55;;;;;;;30.90;17.80;;;;;;;15.29;100.00;101215.38;6314331;28;20076;-77
2022/10/27 14:07:59;;;;;;;37.55;19.35;;;;;;;15.16;100.00;101217.09;6331129;28;20043;-77